Decoded Metar for UUDL ( in ) (IATA:) | Meteo·Mobile Aviation Weather
aviador You're here:

UUDL Decoded Metar

in
Report Time2018-12-17 09:00:00
UTC Time2018-12-17 09:19:56
Flight Rules vfr VFR
WindCalm
Visibility9999 m
Phenomena:N/A
Clouds:N/A
Expected CloudBase > 1,200 ft AGL from Temp-Dew spread
CeilingNone
Temp-18°C
Dew Point-21°C (78% RH)
AAT-21.6°C
QNH1038 hPa
Raw Report
METAR UUDL 170900Z 00000MPS CAVOK M18/M21 Q1038 R23/720253 NOSIG RMK
QFE770=

Extra information for UUDL:More info

Social comments